Black Point, California
Current Conditions -  °F | °C
As of 2:35 AM on Thursday 18 Dec 2014 (Local Time) from KDVO Reporting Station
Overcast Overcast  
Wind Chill: 50°   Ceiling: 1200
Heat Index: 50°   Visibility: 8mi
Dew Point: 50°   Wind: 7mph
Humidity: 100%   Direction: 100°E
Pressure: 30.09"   Gusts: NA
Location:  38.1262°N, 122.559°W
Report Text: KDVO 181035Z AUTO 10006KT 8SM SCT006 OVC012 10/10 A3009 RMK AO2
Loading
Personal Weather Stations






























Interactive Weather Map New forecast layout! Learn more

10-Day Weather Forecast

Advertisements
Track Severe Weather on mobile